createdAt,value
2022-08-05T00:01:36.467Z,7.20
2022-08-05T00:04:19.016Z,9.32
2022-08-05T00:06:51.567Z,10.70
2022-08-05T00:09:22.329Z,6.45
2022-08-05T00:11:56.117Z,11.55
2022-08-05T00:14:29.340Z,10.82
2022-08-05T00:17:01.844Z,5.97
2022-08-05T00:19:33.305Z,8.20
2022-08-05T00:22:11.277Z,10.35
2022-08-05T00:24:42.403Z,8.82
2022-08-05T00:27:14.133Z,11.90
2022-08-05T00:29:46.050Z,10.40
2022-08-05T00:32:17.585Z,7.53
2022-08-05T00:35:04.465Z,15.00
2022-08-05T00:37:53.117Z,8.20
2022-08-05T00:40:26.945Z,7.45
2022-08-05T00:43:01.169Z,7.85
2022-08-05T00:45:42.905Z,9.55
2022-08-05T00:48:14.112Z,14.98
2022-08-05T00:50:46.104Z,12.38
2022-08-05T00:54:01.084Z,10.02
2022-08-05T00:56:08.016Z,7.90
2022-08-05T00:58:38.942Z,7.57
2022-08-05T01:01:11.648Z,8.98
2022-08-05T01:03:41.870Z,10.07
2022-08-05T01:06:15.529Z,8.90
2022-08-05T01:08:47.234Z,9.27
2022-08-05T01:11:22.484Z,7.47
2022-08-05T01:14:08.974Z,5.97
2022-08-05T01:16:48.701Z,8.18
2022-08-05T01:19:36.755Z,8.98
2022-08-05T01:22:24.151Z,9.60
2022-08-05T01:25:17.445Z,6.70
2022-08-05T01:28:28.569Z,8.10
2022-08-05T01:31:03.933Z,6.00
2022-08-05T01:33:36.297Z,11.10
2022-08-05T01:36:12.895Z,5.85
2022-08-05T01:38:45.959Z,8.65
2022-08-05T01:41:21.058Z,11.05
2022-08-05T01:43:52.814Z,10.20
2022-08-05T01:46:41.591Z,11.65
2022-08-05T01:51:58.472Z,6.60
2022-08-05T01:54:45.739Z,10.73
2022-08-05T01:58:11.775Z,11.32
2022-08-05T02:00:11.896Z,7.18
2022-08-05T02:02:55.092Z,9.25
2022-08-05T02:05:25.456Z,5.53
2022-08-05T02:08:01.366Z,7.53
2022-08-05T02:10:34.922Z,7.38
2022-08-05T02:13:16.269Z,6.35
2022-08-05T02:15:53.096Z,7.93
2022-08-05T02:18:33.342Z,8.38
2022-08-05T02:21:15.191Z,8.60
2022-08-05T02:28:48.060Z,7.45
2022-08-05T02:31:23.583Z,7.72
2022-08-05T02:33:57.863Z,9.45
2022-08-05T02:36:31.623Z,14.38
2022-08-05T02:39:02.062Z,6.50
2022-08-05T02:44:21.189Z,6.65
2022-08-05T02:46:58.652Z,8.77
2022-08-05T02:49:36.773Z,10.32
2022-08-05T02:52:09.266Z,9.13
2022-08-05T02:54:42.308Z,7.88
2022-08-05T02:58:10.335Z,7.97
2022-08-05T03:00:10.222Z,8.15
2022-08-05T03:02:42.861Z,5.93
2022-08-05T03:05:12.930Z,7.40
2022-08-05T03:08:06.838Z,6.80
2022-08-05T03:10:31.428Z,7.05
2022-08-05T03:15:27.947Z,6.22
2022-08-05T03:17:59.478Z,9.48
2022-08-05T03:20:28.609Z,7.20
2022-08-05T03:22:58.178Z,11.35
2022-08-05T03:25:33.016Z,6.80
2022-08-05T03:28:04.359Z,8.60
2022-08-05T03:30:34.376Z,9.70
2022-08-05T03:33:07.350Z,10.43
2022-08-05T03:35:41.181Z,11.55
2022-08-05T03:38:14.690Z,6.88
2022-08-05T03:40:45.183Z,6.53
2022-08-05T03:44:08.240Z,10.13
2022-08-05T03:46:08.230Z,6.47
2022-08-05T03:48:38.651Z,8.25
2022-08-05T03:52:39.069Z,11.32
2022-08-05T03:55:53.478Z,10.15
2022-08-05T03:56:59.881Z,9.70
2022-08-05T03:59:47.492Z,14.27
2022-08-05T04:02:38.681Z,9.48
2022-08-05T04:05:23.082Z,12.13
2022-08-05T04:07:58.323Z,9.10
2022-08-05T04:10:31.985Z,12.50
2022-08-05T04:13:06.974Z,9.25
2022-08-05T04:15:36.775Z,7.00
2022-08-05T04:18:07.874Z,9.02
2022-08-05T04:20:41.382Z,6.70
2022-08-05T04:23:12.635Z,7.00
2022-08-05T04:26:00.362Z,8.07
2022-08-05T04:28:30.770Z,9.07
2022-08-05T04:31:01.697Z,7.85
2022-08-05T04:34:17.711Z,10.52
2022-08-05T04:36:49.608Z,11.00
2022-08-05T04:41:44.906Z,13.60
2022-08-05T04:44:20.969Z,14.98
2022-08-05T04:46:50.595Z,10.60
2022-08-05T04:49:24.731Z,13.90
2022-08-05T04:52:08.763Z,10.02
2022-08-05T04:54:37.621Z,9.75
2022-08-05T04:57:06.601Z,8.90
2022-08-05T04:59:39.232Z,25.38
2022-08-05T05:02:37.281Z,11.75
2022-08-05T05:05:03.066Z,8.77
2022-08-05T05:07:35.550Z,10.13
2022-08-05T05:10:06.673Z,13.60
2022-08-05T05:12:36.843Z,9.30
2022-08-05T05:15:10.886Z,16.80
2022-08-05T05:17:55.887Z,16.83
2022-08-05T05:20:28.259Z,10.73
2022-08-05T05:22:59.293Z,10.95
2022-08-05T05:25:32.598Z,12.35
2022-08-05T05:28:02.070Z,13.40
2022-08-05T05:30:33.389Z,20.48
2022-08-05T05:33:15.844Z,19.05
2022-08-05T05:35:47.373Z,9.93
2022-08-05T05:38:22.911Z,15.35
2022-08-05T05:40:56.433Z,13.73
2022-08-05T05:43:57.014Z,10.98
2022-08-05T05:46:17.372Z,14.13
2022-08-05T05:48:48.980Z,12.27
2022-08-05T05:53:57.942Z,10.95
2022-08-05T05:56:31.549Z,16.02
2022-08-05T05:59:05.145Z,13.70
2022-08-05T06:01:37.417Z,10.13
2022-08-05T06:04:11.387Z,10.38
2022-08-05T06:06:42.885Z,12.10
2022-08-05T06:09:17.086Z,13.13
2022-08-05T06:12:00.990Z,11.32
2022-08-05T06:14:31.430Z,15.63
2022-08-05T06:17:02.275Z,8.80
2022-08-05T06:19:57.162Z,16.38
2022-08-05T06:22:29.615Z,10.18
2022-08-05T06:25:00.418Z,10.10
2022-08-05T06:28:11.340Z,15.15
2022-08-05T06:30:21.175Z,9.82
2022-08-05T06:32:50.990Z,12.05
2022-08-05T06:36:03.017Z,9.30
2022-08-05T06:38:11.403Z,13.90
2022-08-05T06:40:44.710Z,11.75
2022-08-05T06:43:58.246Z,17.10
2022-08-05T06:46:06.889Z,11.52
2022-08-05T06:48:53.009Z,7.43
2022-08-05T06:51:30.235Z,13.18
2022-08-05T06:54:01.929Z,10.38
2022-08-05T06:56:34.928Z,12.63
2022-08-05T06:59:09.754Z,11.57
2022-08-05T07:01:42.330Z,10.27
2022-08-05T07:04:13.889Z,9.45
2022-08-05T07:06:43.219Z,6.45
2022-08-05T07:09:11.926Z,10.98
2022-08-05T07:11:49.489Z,9.85
2022-08-05T07:14:37.966Z,10.82
2022-08-05T07:18:00.304Z,8.13
2022-08-05T07:22:45.842Z,8.55
2022-08-05T07:25:54.332Z,11.13
2022-08-05T07:28:11.540Z,5.30
2022-08-05T07:30:40.833Z,7.63
2022-08-05T07:33:16.204Z,5.97
2022-08-05T07:36:01.875Z,6.05
2022-08-05T07:38:43.075Z,10.38
2022-08-05T07:42:09.547Z,7.72
2022-08-05T07:44:05.396Z,7.38
2022-08-05T07:46:34.646Z,8.20
2022-08-05T07:49:06.252Z,11.10
2022-08-05T07:51:40.896Z,18.27
2022-08-05T07:54:18.862Z,13.63
2022-08-05T07:57:01.237Z,9.48
2022-08-05T07:59:40.931Z,9.88
2022-08-05T08:02:16.416Z,9.07
2022-08-05T08:04:48.749Z,11.20
2022-08-05T08:07:22.011Z,7.40
2022-08-05T08:09:55.052Z,11.63
2022-08-05T08:12:36.824Z,8.98
2022-08-05T08:15:15.605Z,8.98
2022-08-05T08:17:50.774Z,9.07
2022-08-05T08:20:59.752Z,10.80
2022-08-05T08:24:02.938Z,6.90
2022-08-05T08:26:02.833Z,6.37
2022-08-05T08:28:36.831Z,4.70
2022-08-05T08:31:15.044Z,7.20
2022-08-05T08:33:51.674Z,5.65
2022-08-05T08:36:38.474Z,7.28
2022-08-05T08:39:15.605Z,5.90
2022-08-05T08:41:52.511Z,5.13
2022-08-05T08:45:16.543Z,3.50
2022-08-05T08:48:05.836Z,4.05
2022-08-05T08:51:03.524Z,6.90
2022-08-05T08:53:08.214Z,4.13
2022-08-05T08:56:05.231Z,4.35
2022-08-05T08:58:37.578Z,6.55
2022-08-05T09:01:18.078Z,6.90
2022-08-05T09:03:54.362Z,4.55
2022-08-05T09:06:29.620Z,7.95
2022-08-05T09:09:01.513Z,5.30
2022-08-05T09:11:51.449Z,7.85
2022-08-05T09:14:58.533Z,7.97
2022-08-05T09:17:40.776Z,9.10
2022-08-05T09:20:02.807Z,10.70
2022-08-05T09:23:09.292Z,7.57
2022-08-05T09:26:01.996Z,10.98
2022-08-05T09:28:31.842Z,3.92
2022-08-05T09:31:22.808Z,5.93
2022-08-05T09:33:56.231Z,5.50
2022-08-05T09:36:33.436Z,4.80
2022-08-05T09:39:16.460Z,6.65
2022-08-05T09:42:00.703Z,10.18
2022-08-05T09:44:37.899Z,3.40
2022-08-05T09:47:12.783Z,11.23
2022-08-05T09:50:01.336Z,7.07
2022-08-05T09:52:36.310Z,6.60
2022-08-05T09:55:56.084Z,3.10
2022-08-05T09:58:11.900Z,5.43
2022-08-05T10:00:40.782Z,3.17
2022-08-05T10:03:12.719Z,3.40
2022-08-05T10:05:42.331Z,5.28
2022-08-05T10:08:37.726Z,4.40
2022-08-05T10:11:01.209Z,6.50
2022-08-05T10:13:47.835Z,2.63
2022-08-05T10:16:32.102Z,2.75
2022-08-05T10:19:08.624Z,6.78
2022-08-05T10:21:40.949Z,9.13
2022-08-05T10:24:13.778Z,5.75
2022-08-05T10:26:49.205Z,4.20
2022-08-05T10:29:23.913Z,4.40
2022-08-05T10:32:53.218Z,6.53
2022-08-05T10:35:04.115Z,4.40
2022-08-05T10:37:44.349Z,4.20
2022-08-05T10:40:28.218Z,12.10
2022-08-05T10:43:01.026Z,6.35
2022-08-05T10:45:40.256Z,11.55
2022-08-05T10:48:38.377Z,4.00
2022-08-05T10:51:28.850Z,4.78
2022-08-05T10:54:01.031Z,4.20
2022-08-05T10:56:45.249Z,8.10
2022-08-05T11:00:03.581Z,10.75
2022-08-05T11:02:14.562Z,8.27
2022-08-05T11:05:00.969Z,7.47
2022-08-05T11:07:33.016Z,4.85
2022-08-05T11:10:27.119Z,5.57
2022-08-05T11:13:01.121Z,10.02
2022-08-05T11:15:59.044Z,4.22
2022-08-05T11:18:30.074Z,5.20
2022-08-05T11:21:02.894Z,3.10
2022-08-05T11:26:34.825Z,9.70
2022-08-05T11:29:12.903Z,10.77
2022-08-05T11:31:57.114Z,9.00
2022-08-05T11:34:50.858Z,7.18
2022-08-05T11:38:28.577Z,4.25
2022-08-05T11:41:34.226Z,2.55
2022-08-05T11:44:05.025Z,7.18
2022-08-05T11:47:09.488Z,9.38
2022-08-05T11:49:34.158Z,5.03
2022-08-05T11:52:11.451Z,10.88
2022-08-05T11:54:43.430Z,6.00
2022-08-05T11:57:25.195Z,7.38
2022-08-05T11:59:55.899Z,4.30
2022-08-05T12:02:33.038Z,10.65
2022-08-05T12:05:06.805Z,9.98
2022-08-05T12:08:03.609Z,5.63
2022-08-05T12:10:43.793Z,5.55
2022-08-05T12:13:18.843Z,7.03
2022-08-05T12:16:14.923Z,15.48
2022-08-05T12:18:49.086Z,9.35
2022-08-05T12:21:26.920Z,5.50
2022-08-05T12:24:04.864Z,8.48
2022-08-05T12:26:36.100Z,8.80
2022-08-05T12:29:09.370Z,5.75
2022-08-05T12:31:41.532Z,6.78
2022-08-05T12:34:21.604Z,6.63
2022-08-05T12:36:55.067Z,4.95
2022-08-05T12:39:34.539Z,5.05
2022-08-05T12:42:14.621Z,6.22
2022-08-05T12:44:46.057Z,6.97
2022-08-05T12:47:30.692Z,3.50
2022-08-05T12:50:05.970Z,6.30
2022-08-05T12:52:39.060Z,6.47
2022-08-05T12:55:22.045Z,3.80
2022-08-05T12:58:38.364Z,6.32
2022-08-05T13:02:02.594Z,6.30
2022-08-05T13:03:39.057Z,7.18
2022-08-05T13:06:14.215Z,6.03
2022-08-05T13:08:50.767Z,6.00
2022-08-05T13:12:01.286Z,3.55
2022-08-05T13:14:24.680Z,4.53
2022-08-05T13:17:08.954Z,4.45
2022-08-05T13:19:50.946Z,6.97
2022-08-05T13:22:28.314Z,5.85
2022-08-05T13:25:05.445Z,7.35
2022-08-05T13:27:39.476Z,5.68
2022-08-05T13:30:34.415Z,9.27
2022-08-05T13:33:01.498Z,4.68
2022-08-05T13:35:42.724Z,3.00
2022-08-05T13:38:28.088Z,11.32
2022-08-05T13:41:00.483Z,6.95
2022-08-05T13:43:44.989Z,9.15
2022-08-05T13:46:30.778Z,6.07
2022-08-05T13:49:10.367Z,7.60
2022-08-05T13:51:46.513Z,4.82
2022-08-05T13:54:21.190Z,4.35
2022-08-05T13:56:54.661Z,5.13
2022-08-05T13:59:27.438Z,15.98
2022-08-05T14:02:00.527Z,3.58
2022-08-05T14:04:49.827Z,3.85
2022-08-05T14:07:25.604Z,6.93
2022-08-05T14:10:13.602Z,5.45
2022-08-05T14:12:48.809Z,8.80
2022-08-05T14:16:04.312Z,6.78
2022-08-05T14:20:48.581Z,3.33
2022-08-05T14:23:23.808Z,8.23
2022-08-05T14:25:59.047Z,3.80
2022-08-05T14:28:29.711Z,10.77
2022-08-05T14:30:59.458Z,6.13
2022-08-05T14:33:32.533Z,8.07
2022-08-05T14:36:21.524Z,6.07
2022-08-05T14:38:51.345Z,4.43
2022-08-05T14:43:57.732Z,5.38
2022-08-05T14:46:31.913Z,10.13
2022-08-05T14:49:07.265Z,3.97
2022-08-05T14:51:37.816Z,3.50
2022-08-05T14:54:27.982Z,5.65
2022-08-05T14:57:00.734Z,4.72
2022-08-05T14:59:35.687Z,4.75
2022-08-05T15:02:15.820Z,4.00
2022-08-05T15:04:47.684Z,3.58
2022-08-05T15:08:12.140Z,8.57
2022-08-05T15:10:09.851Z,11.02
2022-08-05T15:12:59.638Z,3.80
2022-08-05T15:15:54.189Z,7.75
2022-08-05T15:18:18.826Z,20.38
2022-08-05T15:20:47.767Z,3.60
2022-08-05T15:23:16.904Z,4.13
2022-08-05T15:25:52.679Z,3.23
2022-08-05T15:28:27.444Z,3.72
2022-08-05T15:30:57.545Z,5.38
2022-08-05T15:36:17.237Z,6.60
2022-08-05T15:40:58.278Z,5.85
2022-08-05T15:41:58.420Z,6.30
2022-08-05T15:44:30.337Z,3.88
2022-08-05T15:46:59.427Z,10.27
2022-08-05T15:49:47.938Z,9.20
2022-08-05T15:52:51.967Z,5.80
2022-08-05T15:55:07.474Z,8.38
2022-08-05T15:57:39.101Z,5.22
2022-08-05T16:00:12.153Z,7.00
2022-08-05T16:02:48.164Z,12.27
2022-08-05T16:05:17.155Z,3.75
2022-08-05T16:07:50.621Z,3.53
2022-08-05T16:10:25.325Z,6.10
2022-08-05T16:12:55.917Z,14.73
2022-08-05T16:15:32.732Z,5.65
2022-08-05T16:18:04.257Z,3.33
2022-08-05T16:20:33.287Z,5.25
2022-08-05T16:23:03.837Z,6.00
2022-08-05T16:25:34.672Z,12.55
2022-08-05T16:28:05.843Z,7.75
2022-08-05T16:30:36.969Z,4.20
2022-08-05T16:33:06.071Z,6.88
2022-08-05T16:35:43.029Z,4.50
2022-08-05T16:38:18.486Z,5.28
2022-08-05T16:40:55.588Z,14.30
2022-08-05T16:43:31.579Z,8.15
2022-08-05T16:46:24.584Z,6.53
2022-08-05T16:48:53.816Z,6.80
2022-08-05T16:51:24.813Z,8.27
2022-08-05T16:54:03.125Z,9.32
2022-08-05T16:56:41.789Z,4.50
2022-08-05T16:59:11.858Z,6.38
2022-08-05T17:01:54.348Z,8.90
2022-08-05T17:04:27.470Z,11.00
2022-08-05T17:07:01.070Z,12.45
2022-08-05T17:09:55.949Z,10.63
2022-08-05T17:12:22.349Z,8.25
2022-08-05T17:14:51.591Z,5.68
2022-08-05T17:19:55.408Z,11.13
2022-08-05T17:22:25.942Z,6.40
2022-08-05T17:24:57.662Z,9.98
2022-08-05T17:27:33.902Z,8.95
2022-08-05T17:30:11.919Z,15.38
2022-08-05T17:32:42.714Z,12.82
2022-08-05T17:35:12.636Z,6.43
2022-08-05T17:37:45.422Z,4.93
2022-08-05T17:40:22.501Z,22.63
2022-08-05T17:42:53.066Z,7.90
2022-08-05T17:45:26.322Z,10.27
2022-08-05T17:48:09.059Z,8.15
2022-08-05T17:50:40.062Z,8.10
2022-08-05T17:53:10.221Z,7.88
2022-08-05T17:55:40.167Z,10.68
2022-08-05T17:58:12.577Z,9.82
2022-08-05T18:00:45.550Z,9.63
2022-08-05T18:06:11.009Z,14.48
2022-08-05T18:08:45.103Z,17.67
2022-08-05T18:11:24.349Z,11.13
2022-08-05T18:13:59.711Z,15.82
2022-08-05T18:16:29.344Z,14.32
2022-08-05T18:18:59.581Z,11.30
2022-08-05T18:22:07.824Z,17.88
2022-08-05T18:24:17.272Z,7.22
2022-08-05T18:26:46.459Z,8.73
2022-08-05T18:29:17.015Z,13.85
2022-08-05T18:31:45.888Z,10.13
2022-08-05T18:34:21.647Z,10.02
2022-08-05T18:36:50.737Z,8.73
2022-08-05T18:40:31.826Z,10.40
2022-08-05T18:42:11.696Z,13.95
2022-08-05T18:44:55.340Z,15.43
2022-08-05T18:47:26.618Z,14.82
2022-08-05T18:50:15.654Z,12.65
2022-08-05T18:52:51.249Z,11.68
2022-08-05T18:55:22.334Z,18.02
2022-08-05T18:57:53.816Z,15.80
2022-08-05T19:00:27.234Z,16.05
2022-08-05T19:03:03.926Z,19.88
2022-08-05T19:06:13.613Z,16.67
2022-08-05T19:08:30.543Z,11.45
2022-08-05T19:11:04.722Z,9.90
2022-08-05T19:13:36.189Z,14.63
2022-08-05T19:16:25.281Z,18.67
2022-08-05T19:18:56.766Z,8.68
2022-08-05T19:24:09.028Z,13.32
2022-08-05T19:26:54.221Z,13.18
2022-08-05T19:29:35.461Z,11.85
2022-08-05T19:34:33.430Z,12.38
2022-08-05T19:37:04.320Z,13.80
2022-08-05T19:39:33.279Z,15.00
2022-08-05T19:42:15.326Z,11.65
2022-08-05T19:44:45.117Z,17.83
2022-08-05T19:47:16.305Z,11.10
2022-08-05T19:49:46.036Z,15.80
2022-08-05T19:52:31.067Z,17.58
2022-08-05T19:55:07.324Z,17.45
2022-08-05T19:58:19.515Z,15.48
2022-08-05T20:00:39.962Z,15.07
2022-08-05T20:03:09.509Z,11.88
2022-08-05T20:05:50.159Z,12.90
2022-08-05T20:08:24.584Z,16.33
2022-08-05T20:10:53.590Z,8.75
2022-08-05T20:13:54.862Z,13.20
2022-08-05T20:16:12.192Z,13.68
2022-08-05T20:18:41.058Z,10.23
2022-08-05T20:21:10.257Z,14.98
2022-08-05T20:23:51.057Z,9.18
2022-08-05T20:26:24.716Z,12.32
2022-08-05T20:28:56.221Z,16.10
2022-08-05T20:31:28.570Z,15.20
2022-08-05T20:34:12.810Z,12.45
2022-08-05T20:36:43.445Z,14.60
2022-08-05T20:39:16.462Z,9.88
2022-08-05T20:41:47.849Z,12.85
2022-08-05T20:44:30.512Z,9.23
2022-08-05T20:47:01.644Z,9.40
2022-08-05T20:49:33.242Z,12.82
2022-08-05T20:52:07.104Z,10.23
2022-08-05T20:54:42.917Z,11.57
2022-08-05T20:57:43.095Z,8.77
2022-08-05T21:00:41.248Z,11.57
2022-08-05T21:03:07.202Z,11.25
2022-08-05T21:05:54.427Z,12.57
2022-08-05T21:08:26.676Z,9.75
2022-08-05T21:11:11.957Z,14.13
2022-08-05T21:13:55.747Z,13.60
2022-08-05T21:16:29.419Z,9.73
2022-08-05T21:19:00.923Z,12.18
2022-08-05T21:21:39.536Z,15.73
2022-08-05T21:24:15.729Z,17.75
2022-08-05T21:26:58.355Z,15.15
2022-08-05T21:29:31.585Z,12.45
2022-08-05T21:32:02.104Z,10.65
2022-08-05T21:34:33.151Z,14.02
2022-08-05T21:37:04.968Z,21.23
2022-08-05T21:39:34.603Z,10.50
2022-08-05T21:42:31.064Z,15.57
2022-08-05T21:44:59.568Z,15.88
2022-08-05T21:47:54.797Z,14.55
2022-08-05T21:50:17.895Z,12.75
2022-08-05T21:52:47.330Z,14.73
2022-08-05T21:58:10.508Z,12.73
2022-08-05T22:00:51.114Z,14.98
2022-08-05T22:03:52.048Z,13.93
2022-08-05T22:06:09.754Z,13.63
2022-08-05T22:08:42.736Z,14.65
2022-08-05T22:11:15.637Z,29.60
2022-08-05T22:14:18.330Z,18.42
2022-08-05T22:19:57.460Z,15.77
2022-08-05T22:22:10.590Z,15.18
2022-08-05T22:24:56.517Z,16.85
2022-08-05T22:28:08.250Z,16.90
2022-08-05T22:30:36.032Z,13.85
2022-08-05T22:33:15.547Z,20.90
2022-08-05T22:35:48.649Z,16.63
2022-08-05T22:38:18.932Z,21.63
2022-08-05T22:40:49.379Z,17.75
2022-08-05T22:43:37.331Z,27.08
2022-08-05T22:46:13.536Z,25.20
2022-08-05T22:48:52.131Z,14.88
2022-08-05T22:51:23.086Z,19.20
2022-08-05T22:54:09.996Z,26.63
2022-08-05T22:56:39.983Z,16.67
2022-08-05T22:59:46.189Z,16.50
2022-08-05T23:02:05.580Z,19.65
2022-08-05T23:04:36.736Z,15.43
2022-08-05T23:09:58.229Z,21.38
2022-08-05T23:12:28.874Z,25.95
2022-08-05T23:14:58.040Z,25.02
2022-08-05T23:17:34.514Z,18.77
2022-08-05T23:20:16.626Z,16.58
2022-08-05T23:25:51.132Z,20.35
2022-08-05T23:28:07.747Z,15.57
2022-08-05T23:30:40.614Z,17.27
2022-08-05T23:33:22.092Z,14.32
2022-08-05T23:35:55.939Z,20.33
2022-08-05T23:38:26.716Z,15.38
2022-08-05T23:44:05.275Z,18.40
2022-08-05T23:46:20.216Z,22.00
2022-08-05T23:49:00.999Z,15.52
2022-08-05T23:51:48.395Z,17.80
2022-08-05T23:54:25.736Z,15.98
2022-08-05T23:57:04.005Z,16.15
